sensor_id;sensor_type;location;lat;lon;timestamp;temperature;humidity
72206;DHT22;60111;48.286;7.812;2023-06-14T00:00:14;15.80;51.90
72206;DHT22;60111;48.286;7.812;2023-06-14T00:02:48;15.80;53.10
72206;DHT22;60111;48.286;7.812;2023-06-14T00:05:20;15.80;52.30
72206;DHT22;60111;48.286;7.812;2023-06-14T00:07:54;15.80;52.80
72206;DHT22;60111;48.286;7.812;2023-06-14T00:10:27;15.80;53.10
72206;DHT22;60111;48.286;7.812;2023-06-14T00:13:01;15.70;53.10
72206;DHT22;60111;48.286;7.812;2023-06-14T00:15:34;15.60;52.40
72206;DHT22;60111;48.286;7.812;2023-06-14T00:18:07;15.60;53.00
72206;DHT22;60111;48.286;7.812;2023-06-14T00:20:41;15.50;53.70
72206;DHT22;60111;48.286;7.812;2023-06-14T00:23:14;15.50;53.70
72206;DHT22;60111;48.286;7.812;2023-06-14T00:25:47;15.50;53.50
72206;DHT22;60111;48.286;7.812;2023-06-14T00:28:19;15.40;54.30
72206;DHT22;60111;48.286;7.812;2023-06-14T00:30:52;15.40;54.10
72206;DHT22;60111;48.286;7.812;2023-06-14T00:33:24;15.30;53.90
72206;DHT22;60111;48.286;7.812;2023-06-14T00:35:57;15.20;55.30
72206;DHT22;60111;48.286;7.812;2023-06-14T00:38:30;15.10;55.00
72206;DHT22;60111;48.286;7.812;2023-06-14T00:41:02;15.00;55.50
72206;DHT22;60111;48.286;7.812;2023-06-14T00:43:35;14.90;55.40
72206;DHT22;60111;48.286;7.812;2023-06-14T00:46:08;14.90;55.20
72206;DHT22;60111;48.286;7.812;2023-06-14T00:48:40;14.80;54.60
72206;DHT22;60111;48.286;7.812;2023-06-14T00:51:14;14.80;55.10
72206;DHT22;60111;48.286;7.812;2023-06-14T00:53:46;14.60;56.20
72206;DHT22;60111;48.286;7.812;2023-06-14T00:56:19;14.60;56.10
72206;DHT22;60111;48.286;7.812;2023-06-14T00:58:53;14.60;55.20
72206;DHT22;60111;48.286;7.812;2023-06-14T01:01:27;14.50;56.10
72206;DHT22;60111;48.286;7.812;2023-06-14T01:04:00;14.50;54.60
72206;DHT22;60111;48.286;7.812;2023-06-14T01:09:35;14.50;55.70
72206;DHT22;60111;48.286;7.812;2023-06-14T01:15:10;14.40;55.20
72206;DHT22;60111;48.286;7.812;2023-06-14T01:17:44;14.40;55.80
72206;DHT22;60111;48.286;7.812;2023-06-14T01:20:20;14.40;55.80
72206;DHT22;60111;48.286;7.812;2023-06-14T01:22:54;14.30;55.60
72206;DHT22;60111;48.286;7.812;2023-06-14T01:25:26;14.30;55.20
72206;DHT22;60111;48.286;7.812;2023-06-14T01:28:05;14.20;55.60
72206;DHT22;60111;48.286;7.812;2023-06-14T01:30:41;14.20;56.10
72206;DHT22;60111;48.286;7.812;2023-06-14T01:33:22;14.10;55.80
72206;DHT22;60111;48.286;7.812;2023-06-14T01:35:52;14.10;56.00
72206;DHT22;60111;48.286;7.812;2023-06-14T01:38:25;14.10;56.00
72206;DHT22;60111;48.286;7.812;2023-06-14T01:40:58;14.10;55.70
72206;DHT22;60111;48.286;7.812;2023-06-14T01:43:33;14.00;56.30
72206;DHT22;60111;48.286;7.812;2023-06-14T01:46:07;13.90;56.30
72206;DHT22;60111;48.286;7.812;2023-06-14T01:48:40;14.00;55.80
72206;DHT22;60111;48.286;7.812;2023-06-14T01:51:13;14.00;55.60
72206;DHT22;60111;48.286;7.812;2023-06-14T01:53:46;13.90;56.10
72206;DHT22;60111;48.286;7.812;2023-06-14T01:56:20;13.90;55.60
72206;DHT22;60111;48.286;7.812;2023-06-14T01:58:53;14.00;55.30
72206;DHT22;60111;48.286;7.812;2023-06-14T02:01:26;13.90;55.30
72206;DHT22;60111;48.286;7.812;2023-06-14T02:03:58;13.90;54.80
72206;DHT22;60111;48.286;7.812;2023-06-14T02:06:31;13.90;54.10
72206;DHT22;60111;48.286;7.812;2023-06-14T02:09:04;13.80;53.50
72206;DHT22;60111;48.286;7.812;2023-06-14T02:11:37;13.80;54.10
72206;DHT22;60111;48.286;7.812;2023-06-14T02:14:09;13.80;53.60
72206;DHT22;60111;48.286;7.812;2023-06-14T02:16:43;13.80;53.90
72206;DHT22;60111;48.286;7.812;2023-06-14T02:19:20;13.80;53.30
72206;DHT22;60111;48.286;7.812;2023-06-14T02:21:53;13.90;53.30
72206;DHT22;60111;48.286;7.812;2023-06-14T02:24:26;13.90;53.30
72206;DHT22;60111;48.286;7.812;2023-06-14T02:26:58;13.90;53.80
72206;DHT22;60111;48.286;7.812;2023-06-14T02:29:31;13.90;53.80
72206;DHT22;60111;48.286;7.812;2023-06-14T02:32:05;14.00;54.10
72206;DHT22;60111;48.286;7.812;2023-06-14T02:34:38;13.90;53.90
72206;DHT22;60111;48.286;7.812;2023-06-14T02:37:12;14.00;54.40
72206;DHT22;60111;48.286;7.812;2023-06-14T02:39:45;13.70;55.20
72206;DHT22;60111;48.286;7.812;2023-06-14T02:42:17;13.50;57.20
72206;DHT22;60111;48.286;7.812;2023-06-14T02:44:50;13.40;58.00
72206;DHT22;60111;48.286;7.812;2023-06-14T02:47:23;13.30;58.20
72206;DHT22;60111;48.286;7.812;2023-06-14T02:49:56;13.30;58.20
72206;DHT22;60111;48.286;7.812;2023-06-14T02:52:29;13.20;58.70
72206;DHT22;60111;48.286;7.812;2023-06-14T02:55:01;13.20;58.60
72206;DHT22;60111;48.286;7.812;2023-06-14T02:57:34;13.10;57.90
72206;DHT22;60111;48.286;7.812;2023-06-14T03:00:07;13.00;58.10
72206;DHT22;60111;48.286;7.812;2023-06-14T03:02:44;12.90;59.40
72206;DHT22;60111;48.286;7.812;2023-06-14T03:05:18;12.90;59.00
72206;DHT22;60111;48.286;7.812;2023-06-14T03:07:52;12.70;59.30
72206;DHT22;60111;48.286;7.812;2023-06-14T03:10:25;12.70;60.60
72206;DHT22;60111;48.286;7.812;2023-06-14T03:12:59;12.70;60.10
72206;DHT22;60111;48.286;7.812;2023-06-14T03:15:33;12.60;60.80
72206;DHT22;60111;48.286;7.812;2023-06-14T03:18:08;12.60;61.20
72206;DHT22;60111;48.286;7.812;2023-06-14T03:20:43;12.60;60.60
72206;DHT22;60111;48.286;7.812;2023-06-14T03:23:17;12.50;61.10
72206;DHT22;60111;48.286;7.812;2023-06-14T03:25:49;12.60;61.40
72206;DHT22;60111;48.286;7.812;2023-06-14T03:28:22;12.50;61.10
72206;DHT22;60111;48.286;7.812;2023-06-14T03:30:55;12.50;59.90
72206;DHT22;60111;48.286;7.812;2023-06-14T03:33:28;12.50;61.30
72206;DHT22;60111;48.286;7.812;2023-06-14T03:36:01;12.50;60.90
72206;DHT22;60111;48.286;7.812;2023-06-14T03:38:34;12.40;60.80
72206;DHT22;60111;48.286;7.812;2023-06-14T03:41:06;12.40;60.80
72206;DHT22;60111;48.286;7.812;2023-06-14T03:43:40;12.30;62.00
72206;DHT22;60111;48.286;7.812;2023-06-14T03:46:13;12.30;62.40
72206;DHT22;60111;48.286;7.812;2023-06-14T03:48:45;12.30;61.80
72206;DHT22;60111;48.286;7.812;2023-06-14T03:51:18;12.20;62.70
72206;DHT22;60111;48.286;7.812;2023-06-14T03:53:51;12.20;62.90
72206;DHT22;60111;48.286;7.812;2023-06-14T03:56:23;12.20;62.90
72206;DHT22;60111;48.286;7.812;2023-06-14T03:58:56;12.10;63.60
72206;DHT22;60111;48.286;7.812;2023-06-14T04:01:29;12.20;62.50
72206;DHT22;60111;48.286;7.812;2023-06-14T04:04:02;12.20;63.00
72206;DHT22;60111;48.286;7.812;2023-06-14T04:06:35;12.10;64.00
72206;DHT22;60111;48.286;7.812;2023-06-14T04:09:08;12.10;64.50
72206;DHT22;60111;48.286;7.812;2023-06-14T04:11:41;12.10;63.90
72206;DHT22;60111;48.286;7.812;2023-06-14T04:14:14;12.00;64.10
72206;DHT22;60111;48.286;7.812;2023-06-14T04:16:47;12.00;64.70
72206;DHT22;60111;48.286;7.812;2023-06-14T04:19:19;12.10;64.40
72206;DHT22;60111;48.286;7.812;2023-06-14T04:21:52;12.10;64.80
72206;DHT22;60111;48.286;7.812;2023-06-14T04:24:25;12.10;64.80
72206;DHT22;60111;48.286;7.812;2023-06-14T04:26:59;12.10;65.00
72206;DHT22;60111;48.286;7.812;2023-06-14T04:29:34;12.20;65.00
72206;DHT22;60111;48.286;7.812;2023-06-14T04:32:07;12.30;64.70
72206;DHT22;60111;48.286;7.812;2023-06-14T04:34:41;12.30;64.90
72206;DHT22;60111;48.286;7.812;2023-06-14T04:37:14;12.30;62.70
72206;DHT22;60111;48.286;7.812;2023-06-14T04:39:48;12.30;64.00
72206;DHT22;60111;48.286;7.812;2023-06-14T04:42:24;12.40;64.20
72206;DHT22;60111;48.286;7.812;2023-06-14T04:44:59;12.40;64.60
72206;DHT22;60111;48.286;7.812;2023-06-14T04:47:32;12.50;62.90
72206;DHT22;60111;48.286;7.812;2023-06-14T04:50:06;12.60;62.20
72206;DHT22;60111;48.286;7.812;2023-06-14T04:52:38;12.70;61.70
72206;DHT22;60111;48.286;7.812;2023-06-14T04:55:12;12.80;61.40
72206;DHT22;60111;48.286;7.812;2023-06-14T04:57:45;12.90;61.30
72206;DHT22;60111;48.286;7.812;2023-06-14T05:00:18;13.00;60.60
72206;DHT22;60111;48.286;7.812;2023-06-14T05:02:51;13.20;59.40
72206;DHT22;60111;48.286;7.812;2023-06-14T05:05:24;13.30;59.20
72206;DHT22;60111;48.286;7.812;2023-06-14T05:07:57;13.40;59.30
72206;DHT22;60111;48.286;7.812;2023-06-14T05:10:30;13.50;58.40
72206;DHT22;60111;48.286;7.812;2023-06-14T05:13:03;13.60;58.50
72206;DHT22;60111;48.286;7.812;2023-06-14T05:15:36;13.60;58.30
72206;DHT22;60111;48.286;7.812;2023-06-14T05:18:08;13.70;58.70
72206;DHT22;60111;48.286;7.812;2023-06-14T05:20:41;13.90;58.50
72206;DHT22;60111;48.286;7.812;2023-06-14T05:23:13;14.00;58.30
72206;DHT22;60111;48.286;7.812;2023-06-14T05:25:46;14.10;57.50
72206;DHT22;60111;48.286;7.812;2023-06-14T05:28:19;14.10;57.70
72206;DHT22;60111;48.286;7.812;2023-06-14T05:30:52;14.20;56.40
72206;DHT22;60111;48.286;7.812;2023-06-14T05:33:24;14.30;56.90
72206;DHT22;60111;48.286;7.812;2023-06-14T05:35:57;14.40;57.00
72206;DHT22;60111;48.286;7.812;2023-06-14T05:38:30;14.50;56.70
72206;DHT22;60111;48.286;7.812;2023-06-14T05:41:03;14.70;55.90
72206;DHT22;60111;48.286;7.812;2023-06-14T05:43:35;14.80;55.40
72206;DHT22;60111;48.286;7.812;2023-06-14T05:46:08;14.90;55.30
72206;DHT22;60111;48.286;7.812;2023-06-14T05:48:41;15.00;55.40
72206;DHT22;60111;48.286;7.812;2023-06-14T05:51:14;15.20;55.00
72206;DHT22;60111;48.286;7.812;2023-06-14T05:53:48;15.30;54.90
72206;DHT22;60111;48.286;7.812;2023-06-14T05:56:21;15.40;55.00
72206;DHT22;60111;48.286;7.812;2023-06-14T05:58:54;15.50;54.80
72206;DHT22;60111;48.286;7.812;2023-06-14T06:01:26;15.70;55.00
72206;DHT22;60111;48.286;7.812;2023-06-14T06:03:59;15.80;55.40
72206;DHT22;60111;48.286;7.812;2023-06-14T06:06:32;15.80;55.30
72206;DHT22;60111;48.286;7.812;2023-06-14T06:09:04;16.00;54.30
72206;DHT22;60111;48.286;7.812;2023-06-14T06:11:38;16.00;54.80
72206;DHT22;60111;48.286;7.812;2023-06-14T06:14:11;16.10;55.60
72206;DHT22;60111;48.286;7.812;2023-06-14T06:16:43;16.20;55.20
72206;DHT22;60111;48.286;7.812;2023-06-14T06:19:17;16.30;54.00
72206;DHT22;60111;48.286;7.812;2023-06-14T06:21:49;16.30;53.70
72206;DHT22;60111;48.286;7.812;2023-06-14T06:24:22;16.40;53.50
72206;DHT22;60111;48.286;7.812;2023-06-14T06:26:54;16.50;52.70
72206;DHT22;60111;48.286;7.812;2023-06-14T06:29:27;16.60;53.50
72206;DHT22;60111;48.286;7.812;2023-06-14T06:32:01;16.70;54.40
72206;DHT22;60111;48.286;7.812;2023-06-14T06:34:33;16.80;53.50
72206;DHT22;60111;48.286;7.812;2023-06-14T06:37:07;17.00;51.90
72206;DHT22;60111;48.286;7.812;2023-06-14T06:39:40;17.00;52.10
72206;DHT22;60111;48.286;7.812;2023-06-14T06:42:12;17.10;51.30
72206;DHT22;60111;48.286;7.812;2023-06-14T06:44:45;17.20;50.30
72206;DHT22;60111;48.286;7.812;2023-06-14T06:47:18;17.40;52.20
72206;DHT22;60111;48.286;7.812;2023-06-14T06:49:51;17.50;52.50
72206;DHT22;60111;48.286;7.812;2023-06-14T06:52:23;17.70;51.90
72206;DHT22;60111;48.286;7.812;2023-06-14T06:54:56;17.70;50.90
72206;DHT22;60111;48.286;7.812;2023-06-14T06:57:28;17.80;50.30
72206;DHT22;60111;48.286;7.812;2023-06-14T07:00:01;17.90;51.00
72206;DHT22;60111;48.286;7.812;2023-06-14T07:02:36;18.00;49.80
72206;DHT22;60111;48.286;7.812;2023-06-14T07:05:10;18.10;51.20
72206;DHT22;60111;48.286;7.812;2023-06-14T07:07:42;18.30;50.00
72206;DHT22;60111;48.286;7.812;2023-06-14T07:10:15;18.50;50.50
72206;DHT22;60111;48.286;7.812;2023-06-14T07:12:48;18.70;49.50
72206;DHT22;60111;48.286;7.812;2023-06-14T07:15:20;18.80;48.50
72206;DHT22;60111;48.286;7.812;2023-06-14T07:17:53;18.80;48.90
72206;DHT22;60111;48.286;7.812;2023-06-14T07:20:26;19.00;49.20
72206;DHT22;60111;48.286;7.812;2023-06-14T07:22:59;19.20;50.00
72206;DHT22;60111;48.286;7.812;2023-06-14T07:25:32;19.40;48.60
72206;DHT22;60111;48.286;7.812;2023-06-14T07:28:05;19.50;47.60
72206;DHT22;60111;48.286;7.812;2023-06-14T07:30:38;19.50;48.80
72206;DHT22;60111;48.286;7.812;2023-06-14T07:33:10;19.70;48.90
72206;DHT22;60111;48.286;7.812;2023-06-14T07:35:44;19.80;46.80
72206;DHT22;60111;48.286;7.812;2023-06-14T07:38:17;20.00;46.50
72206;DHT22;60111;48.286;7.812;2023-06-14T07:40:50;20.10;45.60
72206;DHT22;60111;48.286;7.812;2023-06-14T07:43:22;20.30;45.90
72206;DHT22;60111;48.286;7.812;2023-06-14T07:45:55;20.30;45.90
72206;DHT22;60111;48.286;7.812;2023-06-14T07:48:28;20.50;46.90
72206;DHT22;60111;48.286;7.812;2023-06-14T07:51:01;20.70;47.30
72206;DHT22;60111;48.286;7.812;2023-06-14T07:53:34;20.90;46.00
72206;DHT22;60111;48.286;7.812;2023-06-14T07:56:06;20.90;45.60
72206;DHT22;60111;48.286;7.812;2023-06-14T07:58:39;21.10;43.80
72206;DHT22;60111;48.286;7.812;2023-06-14T08:01:12;21.20;44.30
72206;DHT22;60111;48.286;7.812;2023-06-14T08:03:44;21.20;44.00
72206;DHT22;60111;48.286;7.812;2023-06-14T08:06:17;21.30;44.80
72206;DHT22;60111;48.286;7.812;2023-06-14T08:08:50;21.40;44.30
72206;DHT22;60111;48.286;7.812;2023-06-14T08:11:22;21.50;45.60
72206;DHT22;60111;48.286;7.812;2023-06-14T08:13:55;21.60;44.20
72206;DHT22;60111;48.286;7.812;2023-06-14T08:16:28;21.80;44.20
72206;DHT22;60111;48.286;7.812;2023-06-14T08:19:01;21.80;44.40
72206;DHT22;60111;48.286;7.812;2023-06-14T08:21:33;22.00;44.30
72206;DHT22;60111;48.286;7.812;2023-06-14T08:24:08;22.10;44.10
72206;DHT22;60111;48.286;7.812;2023-06-14T08:26:41;22.30;43.10
72206;DHT22;60111;48.286;7.812;2023-06-14T08:29:14;22.40;42.30
72206;DHT22;60111;48.286;7.812;2023-06-14T08:31:47;22.50;43.60
72206;DHT22;60111;48.286;7.812;2023-06-14T08:34:20;22.60;42.50
72206;DHT22;60111;48.286;7.812;2023-06-14T08:36:54;22.80;42.20
72206;DHT22;60111;48.286;7.812;2023-06-14T08:39:27;22.90;41.80
72206;DHT22;60111;48.286;7.812;2023-06-14T08:42:01;23.10;42.60
72206;DHT22;60111;48.286;7.812;2023-06-14T08:44:35;23.30;42.10
72206;DHT22;60111;48.286;7.812;2023-06-14T08:47:08;23.20;41.10
72206;DHT22;60111;48.286;7.812;2023-06-14T08:49:41;23.20;41.30
72206;DHT22;60111;48.286;7.812;2023-06-14T08:52:18;23.40;41.40
72206;DHT22;60111;48.286;7.812;2023-06-14T08:54:52;23.70;41.10
72206;DHT22;60111;48.286;7.812;2023-06-14T08:57:25;23.80;40.80
72206;DHT22;60111;48.286;7.812;2023-06-14T09:00:03;23.80;39.60
72206;DHT22;60111;48.286;7.812;2023-06-14T09:02:37;23.90;39.60
72206;DHT22;60111;48.286;7.812;2023-06-14T09:05:12;24.00;37.50
72206;DHT22;60111;48.286;7.812;2023-06-14T09:07:45;24.10;38.80
72206;DHT22;60111;48.286;7.812;2023-06-14T09:10:20;24.10;37.70
72206;DHT22;60111;48.286;7.812;2023-06-14T09:12:53;24.20;39.30
72206;DHT22;60111;48.286;7.812;2023-06-14T09:15:26;24.40;39.00
72206;DHT22;60111;48.286;7.812;2023-06-14T09:18:00;24.50;38.40
72206;DHT22;60111;48.286;7.812;2023-06-14T09:20:33;24.60;38.80
72206;DHT22;60111;48.286;7.812;2023-06-14T09:23:05;24.80;37.50
72206;DHT22;60111;48.286;7.812;2023-06-14T09:25:46;24.90;36.90
72206;DHT22;60111;48.286;7.812;2023-06-14T09:28:19;25.00;36.70
72206;DHT22;60111;48.286;7.812;2023-06-14T09:30:53;25.20;36.90
72206;DHT22;60111;48.286;7.812;2023-06-14T09:33:26;25.30;36.40
72206;DHT22;60111;48.286;7.812;2023-06-14T09:36:01;25.30;37.40
72206;DHT22;60111;48.286;7.812;2023-06-14T09:38:34;25.40;36.30
72206;DHT22;60111;48.286;7.812;2023-06-14T09:41:07;25.40;37.60
72206;DHT22;60111;48.286;7.812;2023-06-14T09:43:40;25.50;36.90
72206;DHT22;60111;48.286;7.812;2023-06-14T09:46:13;25.70;37.30
72206;DHT22;60111;48.286;7.812;2023-06-14T09:48:46;25.90;37.70
72206;DHT22;60111;48.286;7.812;2023-06-14T09:51:19;26.10;36.80
72206;DHT22;60111;48.286;7.812;2023-06-14T09:53:55;26.30;38.60
72206;DHT22;60111;48.286;7.812;2023-06-14T09:56:29;26.60;37.20
72206;DHT22;60111;48.286;7.812;2023-06-14T09:59:09;26.80;36.80
72206;DHT22;60111;48.286;7.812;2023-06-14T10:01:42;27.00;36.40
72206;DHT22;60111;48.286;7.812;2023-06-14T10:04:16;27.10;36.30
72206;DHT22;60111;48.286;7.812;2023-06-14T10:06:51;27.20;34.60
72206;DHT22;60111;48.286;7.812;2023-06-14T10:09:25;27.00;34.40
72206;DHT22;60111;48.286;7.812;2023-06-14T10:11:58;27.10;35.00
72206;DHT22;60111;48.286;7.812;2023-06-14T10:14:31;27.30;36.00
72206;DHT22;60111;48.286;7.812;2023-06-14T10:17:10;27.30;36.20
72206;DHT22;60111;48.286;7.812;2023-06-14T10:19:55;27.50;34.30
72206;DHT22;60111;48.286;7.812;2023-06-14T10:22:32;27.40;33.70
72206;DHT22;60111;48.286;7.812;2023-06-14T10:33:48;28.00;34.20
72206;DHT22;60111;48.286;7.812;2023-06-14T10:36:31;28.10;32.70
72206;DHT22;60111;48.286;7.812;2023-06-14T10:39:16;28.10;32.50
72206;DHT22;60111;48.286;7.812;2023-06-14T10:41:53;28.00;32.40
72206;DHT22;60111;48.286;7.812;2023-06-14T10:50:05;28.30;32.90
72206;DHT22;60111;48.286;7.812;2023-06-14T10:52:42;28.40;31.80
72206;DHT22;60111;48.286;7.812;2023-06-14T10:55:16;28.40;30.30
72206;DHT22;60111;48.286;7.812;2023-06-14T10:57:52;28.60;31.40
72206;DHT22;60111;48.286;7.812;2023-06-14T11:00:28;28.60;30.90
72206;DHT22;60111;48.286;7.812;2023-06-14T11:05:56;28.90;30.80
72206;DHT22;60111;48.286;7.812;2023-06-14T11:11:11;28.80;30.70
72206;DHT22;60111;48.286;7.812;2023-06-14T11:13:45;28.90;30.80
72206;DHT22;60111;48.286;7.812;2023-06-14T11:16:18;29.10;29.70
72206;DHT22;60111;48.286;7.812;2023-06-14T11:18:51;29.30;29.60
72206;DHT22;60111;48.286;7.812;2023-06-14T11:21:24;29.40;30.80
72206;DHT22;60111;48.286;7.812;2023-06-14T11:23:59;29.30;29.30
72206;DHT22;60111;48.286;7.812;2023-06-14T11:26:32;29.10;29.50
72206;DHT22;60111;48.286;7.812;2023-06-14T11:29:08;29.10;29.90
72206;DHT22;60111;48.286;7.812;2023-06-14T11:31:45;28.90;29.70
72206;DHT22;60111;48.286;7.812;2023-06-14T11:34:17;28.90;29.70
72206;DHT22;60111;48.286;7.812;2023-06-14T11:36:51;29.00;28.80
72206;DHT22;60111;48.286;7.812;2023-06-14T11:39:26;29.10;30.00
72206;DHT22;60111;48.286;7.812;2023-06-14T11:41:59;29.20;29.10
72206;DHT22;60111;48.286;7.812;2023-06-14T11:44:32;29.20;29.40
72206;DHT22;60111;48.286;7.812;2023-06-14T11:47:05;29.20;29.70
72206;DHT22;60111;48.286;7.812;2023-06-14T11:49:38;29.30;28.90
72206;DHT22;60111;48.286;7.812;2023-06-14T11:52:10;29.40;30.30
72206;DHT22;60111;48.286;7.812;2023-06-14T11:54:43;29.50;30.30
72206;DHT22;60111;48.286;7.812;2023-06-14T11:57:18;29.80;29.70
72206;DHT22;60111;48.286;7.812;2023-06-14T11:59:52;29.80;29.40
72206;DHT22;60111;48.286;7.812;2023-06-14T12:02:24;29.30;29.70
72206;DHT22;60111;48.286;7.812;2023-06-14T12:05:04;29.00;30.90
72206;DHT22;60111;48.286;7.812;2023-06-14T12:07:39;29.20;31.40
72206;DHT22;60111;48.286;7.812;2023-06-14T12:10:11;29.20;28.80
72206;DHT22;60111;48.286;7.812;2023-06-14T12:12:44;28.90;31.40
72206;DHT22;60111;48.286;7.812;2023-06-14T12:15:17;28.90;29.80
72206;DHT22;60111;48.286;7.812;2023-06-14T12:17:50;28.90;30.50
72206;DHT22;60111;48.286;7.812;2023-06-14T12:20:29;28.90;30.90
72206;DHT22;60111;48.286;7.812;2023-06-14T12:23:04;29.00;30.80
72206;DHT22;60111;48.286;7.812;2023-06-14T12:25:37;29.20;30.80
72206;DHT22;60111;48.286;7.812;2023-06-14T12:28:11;29.30;30.80
72206;DHT22;60111;48.286;7.812;2023-06-14T12:30:44;29.40;29.40
72206;DHT22;60111;48.286;7.812;2023-06-14T12:33:17;29.30;29.40
72206;DHT22;60111;48.286;7.812;2023-06-14T12:35:50;29.10;30.70
72206;DHT22;60111;48.286;7.812;2023-06-14T12:38:24;29.00;29.40
72206;DHT22;60111;48.286;7.812;2023-06-14T12:40:57;29.00;29.50
72206;DHT22;60111;48.286;7.812;2023-06-14T12:43:29;29.10;29.20
72206;DHT22;60111;48.286;7.812;2023-06-14T12:46:02;29.10;30.10
72206;DHT22;60111;48.286;7.812;2023-06-14T12:48:34;29.30;30.50
72206;DHT22;60111;48.286;7.812;2023-06-14T12:51:07;29.40;29.90
72206;DHT22;60111;48.286;7.812;2023-06-14T12:53:39;29.40;29.30
72206;DHT22;60111;48.286;7.812;2023-06-14T12:56:12;29.50;30.00
72206;DHT22;60111;48.286;7.812;2023-06-14T12:58:44;29.50;29.20
72206;DHT22;60111;48.286;7.812;2023-06-14T13:01:17;29.50;28.40
72206;DHT22;60111;48.286;7.812;2023-06-14T13:03:50;29.30;29.60
72206;DHT22;60111;48.286;7.812;2023-06-14T13:06:24;29.30;29.30
72206;DHT22;60111;48.286;7.812;2023-06-14T13:08:57;29.30;29.60
72206;DHT22;60111;48.286;7.812;2023-06-14T13:11:30;29.30;29.50
72206;DHT22;60111;48.286;7.812;2023-06-14T13:14:03;29.30;28.70
72206;DHT22;60111;48.286;7.812;2023-06-14T13:16:35;29.30;29.20
72206;DHT22;60111;48.286;7.812;2023-06-14T13:19:08;29.20;29.60
72206;DHT22;60111;48.286;7.812;2023-06-14T13:21:40;29.00;28.60
72206;DHT22;60111;48.286;7.812;2023-06-14T13:24:13;29.00;30.70
72206;DHT22;60111;48.286;7.812;2023-06-14T13:26:46;29.00;29.40
72206;DHT22;60111;48.286;7.812;2023-06-14T13:29:18;29.00;29.80
72206;DHT22;60111;48.286;7.812;2023-06-14T13:31:52;28.90;29.90
72206;DHT22;60111;48.286;7.812;2023-06-14T13:34:32;29.10;29.90
72206;DHT22;60111;48.286;7.812;2023-06-14T13:37:05;29.20;30.30
72206;DHT22;60111;48.286;7.812;2023-06-14T13:39:38;29.30;30.40
72206;DHT22;60111;48.286;7.812;2023-06-14T13:42:10;29.50;29.20
72206;DHT22;60111;48.286;7.812;2023-06-14T13:44:43;29.20;29.80
72206;DHT22;60111;48.286;7.812;2023-06-14T13:47:16;29.00;30.40
72206;DHT22;60111;48.286;7.812;2023-06-14T13:49:48;29.10;30.30
72206;DHT22;60111;48.286;7.812;2023-06-14T13:52:22;29.10;30.10
72206;DHT22;60111;48.286;7.812;2023-06-14T13:54:54;28.90;30.10
72206;DHT22;60111;48.286;7.812;2023-06-14T13:57:27;29.00;30.60
72206;DHT22;60111;48.286;7.812;2023-06-14T13:59:59;29.10;31.00
72206;DHT22;60111;48.286;7.812;2023-06-14T14:02:35;29.30;31.00
72206;DHT22;60111;48.286;7.812;2023-06-14T14:05:08;29.30;29.70
72206;DHT22;60111;48.286;7.812;2023-06-14T14:07:41;29.20;30.70
72206;DHT22;60111;48.286;7.812;2023-06-14T14:10:14;28.90;30.20
72206;DHT22;60111;48.286;7.812;2023-06-14T14:12:46;28.60;30.20
72206;DHT22;60111;48.286;7.812;2023-06-14T14:15:19;28.70;30.60
72206;DHT22;60111;48.286;7.812;2023-06-14T14:17:52;28.80;30.90
72206;DHT22;60111;48.286;7.812;2023-06-14T14:20:26;28.70;30.70
72206;DHT22;60111;48.286;7.812;2023-06-14T14:22:58;28.80;30.50
72206;DHT22;60111;48.286;7.812;2023-06-14T14:25:31;28.90;30.60
72206;DHT22;60111;48.286;7.812;2023-06-14T14:28:04;28.90;30.70
72206;DHT22;60111;48.286;7.812;2023-06-14T14:30:36;28.90;30.00
72206;DHT22;60111;48.286;7.812;2023-06-14T14:33:11;28.90;30.30
72206;DHT22;60111;48.286;7.812;2023-06-14T14:35:46;28.90;30.00
72206;DHT22;60111;48.286;7.812;2023-06-14T14:38:19;28.90;30.50
72206;DHT22;60111;48.286;7.812;2023-06-14T14:40:52;29.10;30.10
72206;DHT22;60111;48.286;7.812;2023-06-14T14:43:25;29.30;30.10
72206;DHT22;60111;48.286;7.812;2023-06-14T14:45:58;29.50;30.00
72206;DHT22;60111;48.286;7.812;2023-06-14T14:48:31;29.50;29.20
72206;DHT22;60111;48.286;7.812;2023-06-14T14:51:03;29.40;29.40
72206;DHT22;60111;48.286;7.812;2023-06-14T14:53:36;29.30;28.30
72206;DHT22;60111;48.286;7.812;2023-06-14T14:56:08;29.20;29.80
72206;DHT22;60111;48.286;7.812;2023-06-14T14:58:41;29.10;29.50
72206;DHT22;60111;48.286;7.812;2023-06-14T15:01:13;29.20;29.50
72206;DHT22;60111;48.286;7.812;2023-06-14T15:03:46;29.20;30.10
72206;DHT22;60111;48.286;7.812;2023-06-14T15:06:19;29.10;29.40
72206;DHT22;60111;48.286;7.812;2023-06-14T15:08:52;29.00;29.60
72206;DHT22;60111;48.286;7.812;2023-06-14T15:11:25;29.00;29.60
72206;DHT22;60111;48.286;7.812;2023-06-14T15:13:58;29.10;30.20
72206;DHT22;60111;48.286;7.812;2023-06-14T15:16:31;29.20;29.90
72206;DHT22;60111;48.286;7.812;2023-06-14T15:19:03;29.20;30.30
72206;DHT22;60111;48.286;7.812;2023-06-14T15:21:36;29.30;30.20
72206;DHT22;60111;48.286;7.812;2023-06-14T15:24:08;29.40;30.10
72206;DHT22;60111;48.286;7.812;2023-06-14T15:26:41;29.40;28.80
72206;DHT22;60111;48.286;7.812;2023-06-14T15:29:13;29.20;29.30
72206;DHT22;60111;48.286;7.812;2023-06-14T15:31:46;29.00;29.20
72206;DHT22;60111;48.286;7.812;2023-06-14T15:34:20;29.10;29.10
72206;DHT22;60111;48.286;7.812;2023-06-14T15:36:53;29.00;29.80
72206;DHT22;60111;48.286;7.812;2023-06-14T15:39:26;29.10;29.90
72206;DHT22;60111;48.286;7.812;2023-06-14T15:42:01;29.20;29.20
72206;DHT22;60111;48.286;7.812;2023-06-14T15:44:33;29.20;29.60
72206;DHT22;60111;48.286;7.812;2023-06-14T15:47:07;29.20;29.70
72206;DHT22;60111;48.286;7.812;2023-06-14T15:49:40;29.20;29.60
72206;DHT22;60111;48.286;7.812;2023-06-14T15:52:13;29.30;30.40
72206;DHT22;60111;48.286;7.812;2023-06-14T15:54:45;29.40;30.60
72206;DHT22;60111;48.286;7.812;2023-06-14T15:57:18;29.40;29.20
72206;DHT22;60111;48.286;7.812;2023-06-14T15:59:50;29.30;29.60
72206;DHT22;60111;48.286;7.812;2023-06-14T16:02:23;29.40;29.90
72206;DHT22;60111;48.286;7.812;2023-06-14T16:04:56;29.20;29.70
72206;DHT22;60111;48.286;7.812;2023-06-14T16:07:28;29.30;29.50
72206;DHT22;60111;48.286;7.812;2023-06-14T16:10:01;29.40;29.10
72206;DHT22;60111;48.286;7.812;2023-06-14T16:12:33;29.20;29.10
72206;DHT22;60111;48.286;7.812;2023-06-14T16:15:07;29.20;29.30
72206;DHT22;60111;48.286;7.812;2023-06-14T16:17:39;29.10;29.10
72206;DHT22;60111;48.286;7.812;2023-06-14T16:20:14;29.00;29.50
72206;DHT22;60111;48.286;7.812;2023-06-14T16:22:46;29.00;30.10
72206;DHT22;60111;48.286;7.812;2023-06-14T16:25:19;29.10;29.60
72206;DHT22;60111;48.286;7.812;2023-06-14T16:27:53;29.00;29.50
72206;DHT22;60111;48.286;7.812;2023-06-14T16:30:25;28.80;29.90
72206;DHT22;60111;48.286;7.812;2023-06-14T16:32:58;28.60;29.70